BIKE TECH SU ALMACEN DE CONFIANZA
Make your own free website on Tripod.com

BIKE TECH www.biketech.tripod.com  

 

[ INICIO]

[ ABIERTO ANDINO ]

[ TEAM BIKE TECH ]

[ NOTICIAS]

[ LINKS ]

[ CATÁLOGO ]

[ TRAINING/SOPORTE TÉCNICO ]

[ CONTÁCTENOS ]

 

ABIERTO ANDINO 2008, UN EVENTO HECHO CON EL CORAZÓN

 

Se aprecia mejor con resolución de pantalla a 1024 x 768

BIKE TECH Es patrocinador y organizador del Abierto Andino; Competencia que se realiza cada año y se compone de 4 Validas en las modalidades de XC (Cross Country) y MX (Maratón); realizadas en los municipios de Albán, Mosquera, Faca,y la final en Sopó. También cuenta con el apoyo logístico de los Clubes Bike Tech, la Roca Sopó y Zabrinsky.

Para la temporada 2008, el Abierto Andino cumple su segundo año, y se caracteriza por su gran acogida y premiación. Además de excelentes rutas.

1era Válida (Mosquera)

2da Válida (Facatativa)

3era Válida (Cachipay)

4ta Válida (Sopó) Final

General

 
 
 

2da Válida (Facatativa)

Como siempre la organización se lució, con este evento. Un trayecto muy bueno, gran acogida de participantes, excelente premiación, los mejores paisajes, un clima muy adecuado. Sin duda esto motiva para mejorar las futuras válidas.

<Resultados> <Convocatoria>

Cortesía Club Rino Mountain Bike

 

RESULTADOS 2da VALIDA (FACATATIVA) JULIO 2008


CATEGORÍA ELITE (Abierta)
POSICION GENERAL NUMERO CARRERA NOMBRE TIEMPO CLUB Total
           
1 10 AGUSTÍN RODRIGUEZ 01:16:10 INDEPENDIENTE 39
2 13 CAMILO CASTIBLANCO 01:16:10 GIANT MAXXIS 35
3 3 SALVADOR DIAZ 01:18:27 TIERRADENTRO 32
4 5 JAVIER RABELO 01:20:07 IGUANAS 29
5 1 EDWARD RUSI 01:21:29 VELOCIRAPTOR 26
6 14 OSCAR MOYA 01:24:57 TATOO 24
7 7 EDWIN VILLARRAGA 01:25:30 COYOTE CHIA 22
CATEGORÍA DAMAS
POSICION GENERAL NUMERO CARRERA NOMBRE TIEMPO CLUB Total
           
1 50 NIDIA VARGAS 01:40:10 RINO MTB 39
2 51 GLORIA GARZON 01:40:32 CACIQUE-ZIPA 35
3 64 ANA MARIA BRICEÑO 02:06:43 TATTO ADVENTUR 32
4 69 FLORIDIA LOPEZ 02:40:32 BOYACA 29
5 60 YADIRA VALERO 02:40:33 ZABRINSKY 26
6 70 LUZ MARINA LOPEZ 02:40:34 RINO MTB 24
7 55 DIANA P. ROMERO 02:40:35 FACA 22
8 59 YEIMY CADENA 02:40:36 ANATA 20
9 57 MARTHA CORTES 02:40:37 MINEROS-ZIPA 18
10 68 MILENA FARFAN 02:40:38 ZIPAQUIRA 16
11 66 GLADYS CUELLAR 02:40:39 IND 14
12 67 JACKELINE MORENO 02:40:40 IND 12
CATEGORÍA SENIOR
POSICION GENERAL NUMERO CARRERA NOMBRE TIEMPO CLUB Total
           
1 1082 CHRISTIAN SERRANO 01:18:27 CLINICA RECKEWEG 39
2 1085 FERNANDO SEGURA 01:21:05 0 35
3 1077 ALEJANDRO PINILLA 01:23:08 CICLO UBATE 32
4 1002 ANDRES ABUSHIHAB 01:23:19 VELOCIRAPTOR 29
5 1066 RICARDO CAMPOS 01:24:57 0 26
6 1006 RIGOBERTO TOVAR 01:25:10 K2 24
7 1074 WILMAR RODRIGUEZ 01:25:26 COGUA 22
8 1000 JOHN MORA  01:26:14 BIKE TECH 20
9 1001 MAURICIO RIVERA 01:26:36 RINO MTB 18
10 1019 CARLOS URREGO 01:26:48 VELOCIRAPTOR 16
11 1065 ANDRES GARZON 01:26:52 SABRINSKY 14
12 1089 ANDRES CASTILLO 01:27:12 K2 12
13 1007 ORLANDO CHIQUAZUQUI 01:29:35 K2 10
14 1095 EDWIN RAMIREZ  01:30:35 CICLOOCCIDENTE 8
15 1088 OSCAR SANDOVAL 01:31:09 BIKE TECH 6
16 1094 RONALD ZORRO 01:31:29 INDEP 4
17 1070 NELSON CASTAÑEDA 01:31:52 COGUA 3
18 1043 HECTOR GIRALDO 01:32:58 BICIPARTES 2
19 1013 HENRY CANO 01:32:59 IMDRD RUED COTA 1
20 1015 JOHN CHIGUAZAQUE 01:33:13 INDEPENDIENTE 1
21 1092 VICTOR GOMEZ 01:33:15 BICIPARTES 1
22 1004 JOHN A. CUERVO 01:35:38 K2 1
23 1061 JAIRO RODRIGUEZ 01:36:21 RINO MTB 1
24 1087 EDUARDO AREVALO  01:37:41 IGUANAS 1
25 1069 JAVIER POSADA 01:37:42 BIKE TECH 1
26 1064 JOHAN NIÑO 01:41:29 INDEPENDIENTE 1
27 1083 HECTOR F. GONZALEZ 01:41:55 INDEP 1
28 1071 JOHN CASTAÑEDA 01:42:42 COGUA 1
29 1086 SERGIO GAONA 01:42:56 K2 1
30 1078 HELMER R. CASTIBLANCO 01:49:48 CICLO UBATE 1
31 1079 CARLOS ARTEAGA 01:52:17 RHINO 1
32 1010 ALEJANDRO HERRERA 01:54:51 INDEPENDIENTE 1
33 1072 RODRIGO RUBIANO 01:56:48 COGUA 1
34 1068 CARLOS SALAZAR 02:01:38 INDEP 1
35 1093 FELIX VARGAS 02:05:05 INDEP 1
36 1017 CARLOS A. MONSALVE 02:11:56 INDEPENDIENTE 1
37 1094 RONALD ZORRO 02:17:46 INDEP 1
38 1076 NESTOR PAEZ 03:10:45 INDEP 1
CATEGORÍA JUNIOR
POSICION GENERAL NUMERO CARRERA NOMBRE TIEMPO CLUB Total
           
1 315 JUAN SALGADO 01:23:01 IDRD ZIPA 39
2 323 JULIAN GARCIA 01:29:03 COGUA 35
3 309 JORGE ROA GONZALEZ 01:30:37 BICIPARTES 32
4 322 ANGEL BARON 01:34:42 VELOCIRAPTOR 29
5 316 JORGE RODRIGUEZ 01:36:22 ZIPA 26
6 306 ERIC RAMIREZ 01:45:54 RINO MTB 24
7 318 DANIEL ARENAS  01:48:12 ZIPA 22
CATEGORÍA PREJUVENIL A
POSICION GENERAL NUMERO CARRERA NOMBRE TIEMPO CLUB Total
           
1 109 DIEGO NIETO 01:26:54 ZIPA 39
2 118 HUGO SERRANO 01:31:12 TOCANCIPA 35
3 104 CHRISTIAN MATIZ 01:40:52 BICIPARTES 32
4 113 SAIT KABIR ARANA 01:41:54 VELOCIRAPTOR 29
5 101 ANDRES CARDENAS 01:46:42 INDEPENDIENTE 26
6 116 MARIO ROMERO 01:52:56 SOPO 24
CATEGORÍA PREJUVENIL B
POSICION GENERAL NUMERO CARRERA NOMBRE TIEMPO CLUB Total
           
1 236 JONATHAN MONTES  01:23:17 ZIPA 39
2 208 SERGIO NAVAS 01:25:12 CACIQUE ZIPA 35
3 233 FABIAN WANER 01:26:54 PRODAG 32
4 228 CARLOS GOMEZ 01:28:04 UBATE 29
5 219 OMAR DIAZ 01:30:59 ESCUELA SOPO 26
6 225 JUAN BALLESTEROS 01:31:12 ZIPA 24
7 206 LUIS RODRIGUEZ 01:32:01 ZIPA 22
8 232 SEBASTIAN CARO 01:34:21 ZABRINSKY 20
9 209 IVAN BUENO 01:35:59 CACIQUE ZIPA 18
10 227 ANDERSON TALERO 01:38:10 STUDEBAKER 16
11 201 JUAN ROBLEDO  01:41:29 K2 14
12 230 JULIAN CHOLO 01:43:12 COGUA 12
13 211 JULIAN MENDEZ 01:45:28 K2 10
14 231 CANDY NOVA 01:50:28 COGUA 8
15 235 MAYRON CASTAÑEDA L. 01:55:42 BICIPARTES 6
16 234 ESTEBAN ALARCON 01:57:56 INDEP 4
CATEGORÍA MASTER A
POSICION GENERAL NUMERO CARRERA NOMBRE TIEMPO CLUB Total
           
1 508 JOHN CADENA 01:18:40 SAFETY 39
2 534 OSCAR SALGADO 01:22:10 ZIPAQUIRA 35
3 517 FABIAN CIFUENTES 01:24:12 DINAMICO 32
4 550 BERNARDO LEON 01:24:55 BIKE TECH 29
5 590 HERNANDO LEAL  01:25:50 CHIA 26
6 580 LUIS FLORES 01:27:46 BOGOTA 24
7 513 EDWIN RODRÍGUEZ 01:29:28 RINO MTB 22
8 523 JAIME RONCANCIO 01:29:29 BIKE TECH 20
9 503 JIMMY RUEDA 01:30:14 VELOCIRAPTOR 18
10 500 ANTONIO MADARIAGA 01:30:15 BICIPARTES 16
11 541 MIGUEL MENDOZA 01:30:15 VAN HELSIN 14
12 502 JUAN A. GUEVARA 01:30:28 CAJICA 12
13 554 JAIRO VARGAS 01:34:35 BICIosos 10
14 556 LUIS C. ACOSTA 01:36:20 GACHANCIPA 8
15 512 ANDRES ANGEL 01:36:25 BIKE TECH 6
16 519 SANDRO CASALLAS 01:36:52 VELOCIRAPTOR 4
17 557 ORLANDO RODRIGUEZ 01:37:03 IND 3
18 510 OSCAR M. GRANADOS 01:44:20 CICLONAUTAS 2
19 551 PABLO TORRES 01:48:53 IND 1
20 504 HARRY WILLIAM GALLEGO 01:48:42 RINO MTB 1
21 537 NESTOR MANRIQUE 01:49:18 INDEPENDIENTE 1
22 515 JOHNSY DUQUE 01:50:25 RINO MTB 1
23 555 JUAN D. CAMPO 01:54:26 IGUANAS 1
24 553 ISRAEL ROJAS 02:00:31 IND 1
25 547 JAVIER CHOACHI 02:00:32 ZABRINSKY 1
26 506 JAVIER REBOYO 02:10:33 IND. 1
27 507 FREDY PULGA 02:11:46 IND. 1
28 548 ANDRES CHOACHI 02:13:34 ZABRINSKY 1
29 538 ALEJANDRO JIMENEZ 02:18:14 IND. 1
CATEGORÍA MASTER B
POSICION GENERAL NUMERO CARRERA NOMBRE TIEMPO CLUB Total
           
1 644 JOSELIN SAAVEDRA 01:20:34 BIKE TECH 39
2 634 ALVARO VARGAS 01:25:01 VELOCIRAPTOR 35
3 624 GENTIL QUINTERO 01:26:16 BIKE TECH 32
4 605 RAUL CUITIVA 01:26:52 LA ROCA SOPO 29
5 607 EDGAR GONZALEZ 01:27:26 VELOCIRAPTOR 26
6 608 CAMILO TALERO 01:27:26 STUDEBAKER 24
7 621 MIGUEL A. RAMOS 01:29:15 TIERRADENTRO 22
8 613 FREDDY CASALLAS 01:29:16 VELOCIRAPTOR 20
9 615 CARLOS CASTAÑEDA 01:30:21 COTA 18
10 642 ORLANDO BASANTE 01:32:14 IGUANAS 16
11 630 NELSON FRANCO 01:32:22 SABRINSKY 14
12 633 ISAIAS GONZALEZ 01:34:19 BICIPARTES 12
13 601 VICTOR RAMIREZ 01:34:41 BIKE TECH 10
14 604 OMAR PAEZ 01:39:13 CHIA 8
15 617 CESAR CASTILLO 01:40:03 IMRD 6
16 600 GIOVANNY CANTOR 01:43:51 BIKE TECH 4
17 632 JOSE NIETO 01:43:59 SABRINSKY 3
18 610 LEONARDO ROBAYO 01:50:04 CIUDAD BOLIVAR 2
19 645 EDGAR PEREZ 01:53:48 CICLONAUTAS 1
20 635 JULIO SANCHEZ 02:13:53 VERDE EXTREMO 1
21 646 ANGEL NIETO 02:13:54 INDEP 1
22 641 OSCAR OLMEDO 02:19:14 INDEP 1
23 606 WILLIAM GONZALEZ 02:28:47 INDEPENDIENTE 1
CATEGORÍA MASTER C
POSICION GENERAL NUMERO CARRERA NOMBRE TIEMPO CLUB Total
           
1 717 ORLANDO FOSCA 01:25:50 BIKE TECH 39
2 707 WILSON RAMIREZ 01:26:41 INDEPENDIENTE 35
3 715 HERNAN DIAZ 01:27:46 BIKE TECH 32
4 716 PEDRO BALLESTEROS 01:27:47 INDEPENDIENTE 29
5 713 YURI BARBOSA 01:29:52 TIERRADENTRO 26
6 723 RICARDO LEON 01:30:29 GACHANCIPA 24
7 731 LEANDRO BARBOSA 01:32:22 ZABRINZQUI 22
8 702 JORGE RAMIREZ 01:36:43 VELOCIRAPTOR 20
9 734 MARTIN CASTAÑEDA 01:38:28 ZABRINZQUI 18
10 724 HUMBERTO VILLALOBOS 01:39:42 GACHANCIPA 16
11 722 JORGE MALAGON 01:43:17 INDEPENDIENTE 14
12 735 ** ARTURO ROMERO 01:44:19 JUNGLA BIKE 12
13 701 CARLOS GUERRERO 01:44:20 STUDEBAKER 10
14 714 ANDRES TOPAGA 01:45:14 VELOCIRAPTOR 8
15 732 ALVARO DIAZ 01:47:37 INDEPENDIENTE 6
16 733 FELIPE ROBAYO 01:48:42 INDEPENDIENTE 4
17 709 OSCAR MARTINEZ 01:51:24 BIKE TECH 3
18 700 ANDRES GUTIERREZ 01:51:55 IGUANAS 2
19 718 MARIO CHITIVA 01:56:53 IGUANAS 1
20 729 LUIS JIMENEZ 01:57:50 BIKE TECH 1
21 727 JUAN CHAVARRO 02:01:47 K2 1
22 726 FERNANDO BOTERO 02:07:39 IGUANAS 1
  738 JOAQUIN BOZON Retiro VELOCIRAPTOR 0
**Se cambio el número de competencia por el 735, ya que el 730 se encontraba asignado a otro competidor
CATEGORÍA MASTER D
POSICION GENERAL NUMERO CARRERA NOMBRE TIEMPO CLUB Total
           
1 816 ANDREA BIANCO 01:24:03 BIKETECHLEECUGAN 39
2 801 HECTOR RIVERA 01:34:09 ZABRINSKY 35
3 814 JAIRO GOMEZ 01:40:48 ZABRINSKY 32
4 813 MARIO FERNÁNDEZ 01:46:32 ZABRINSKY 29
5 800 VICENTE GONZALEZ 01:47:34 CIUD. BOLIVAR 26
6 807 ANGEL SENOSIAN 01:50:04 IGUANAS 24
7 812 DANIEL MARTIN 02:04:51 IND. 22
8 806 JULIAN SENOSIAN 02:08:28 IGUANAS 20
CATEGORÍA MASTER E
POSICION GENERAL NUMERO CARRERA NOMBRE TIEMPO CLUB Total
           
1 904 FIDEL OVALLE 01:27:35 MINEROS ZIPA 39
2 907 ARTURO BEJARANO 01:34:53 ZIPA IDRD 35
3 912 MAURICIO RODRIGUEZ 01:38:07 BIKE TECH 32
4 902 PEDRO CEPEDA 01:38:28 CIUD. BOLIVAR 29
5 915 LORENZO CALDERON 01:38:29 CICLO UBATE 26
6 905 MARCOS DIAZ 01:40:02 ANATA 24
7 911 HECTOR MORENO 01:45:58 ZABRINSKY 22
8 920 LUIA A CEPEDA 01:54:00 LEON DE MONTAÑA 20
9 910 JOSE BARBOSA 01:55:17 ZABRINSKY 18
10 903 LUIS E. CEPEDA 02:00:10 CIUD. BOLIVAR 16
11 913 HENRY DUARTE 02:20:47 ZABRINSKY 14
12 908 EDGAR DUQUE 02:29:28 VELOCIRAPTOR 12
13 916 FRANCISCO DUQUE 02:29:29 VELOCIRAPTOR 10
14 909 FERNANDO TRIANA 02:41:58 K2 8
15 914 FRANCISCO CHOACHI 03:01:54 ZABRINSKY 6
CATEGORÍA INFANTIL A
POSICION GENERAL NUMERO CARRERA NOMBRE TIEMPO CLUB Total
           
1 410 ANDERSON ALMECIGA 00:06:24 ESCUELA SOPO 39
2 416 JOHN F. GARZON 00:06:27 SOPO 35
3 406 GABRIEL CARDENAS 00:06:37 INDEPENDIENTE 32
4 409 JOHAN SARMIENTO 00:06:43 ESCUELA SOPO 29
5 408 JAIME SANTAMARIA 00:07:28 SABRINSKY 26
6 417 IVAN NIETO 00:07:38 INDEPENDIENTE 24
7 404 STEVEN CIFUENTES 00:07:38 B SHIMANO 22
8 407 GERSON NIETO 00:08:30 ZABRINSKY 20
CATEGORÍA INFANTIL B
POSICION GENERAL NUMERO CARRERA NOMBRE TIEMPO CLUB Total
           
1 457 MILLER GARZON 00:12:25 STUDEBAKER 39
2 466 STIVEN CEPEDA 00:12:39 LEONES DE MONTAÑA 35
3 460 OSCAR MORENO 00:12:49 STUDEBAKER 32
4 467 BRYAN CEPEDA 00:12:53 LEONES DE MONTAÑA 29
5 475 DAVID CHOLO 00:12:56 COGUA 26
6 465 GUILLERMO ARANA 00:13:05 VELOCIRAPTOR 24
7 470 JUAN TELLEZ 00:13:11 TOCANCIPA 22
8 474 ESTEBAN RODRIGUEZ 00:13:14 COGUA 20
9 459 FELIPE TALERO  00:13:35 STUDEBAKER 18
10 458 ALISON TALERO 00:13:38 STUDEBAKER 16
11 468 SEBASTIAN RIVEROS 00:14:07 VELOCIRAPTOR 14
12 451 ESTEVEN ALMEDIGA 00:14:07 SOPO 12
13 461 LUIS CHACON 00:14:22 INDEPENDIENTE 10
14 469 SILVANA GOMEZ -1 v SABRINSKY 8
15 476 MANUEL VELANDIA -1 v COGUA 6
 

Volver arriba

 

CONVOCATORIA

ABIERTO ANDINO 2008-- Inscribase a la segunda válida a realizarse el domingo 27 de julio. Aproveche y evite congestiones el día de la carrera. Los primeros 200 participantes que se inscriban,  Obtienen beneficios...Reciba una boleta para sensacionales premios...

ABIERTO ANDINO 2008 2da válida

27 de Julio (Maratón de la Selva)-Facatativa

Informes e inscripciones:

Del lunes 14 de julio al viernes 25 de julio,

de 9:30 am a 6:00 pm

Almacén BIKE TECH                                          Calle 71 No 22 25 / Tel: 543 50 96

Los primeros 200 participantes que se inscriban, reciben boleta para la rifa de grandes premios como una espectacular suspensión Manitou

 

La organización del Abierto Andino invita a participar de este gran evento, que ofrecerá almuerzo a los participantes, Rifas, Camiseta marca "Safety" para el primer puesto en todas las categorías.  Y como es característico se dará una Excelente Premiación.

Recuerde:

- Llegar temprano el día de la carrera

- Hidratarse y comer bien

- Obtener el beneficio de inscribirse y pagar antes

- Compita cumpliendo las normas y con buena energía

Foto: Cortesía Club Rino Mountain Bike

Todo está listo, un recorrido lleno de lo que nos gusta con buena técnica, paisajes espectaculares, excelente premiación,... Solo falta usted. No se pierda esta gran competencia.  Inscríbase ya

 

Volver arriba

 

 

 

 

 
 

| Contáctenos:  jimmy_mtb@yahoo.es | Derechos Reservados | ©2008 By Neutron |